Latest Weather Observations for Bunbury

IDW60801

Issued at 3:33 pm WST Friday 1 July 2016 (issued every 30 minutes, with the page automatically refreshed every 10 minutes)

About weather observations | Map of weather stations | Latest weather observations for WA | Other Formats
Station Details ID: 009965 Name: BUNBURY Lat: -33.36 Lon: 115.64 Height: 5.2 m
Data from the previous 72 hours. | See also: Recent months at Bunbury
Date/Time
WST
Temp
°C
App
Temp
°C
Dew
Point
°C
Rel
Hum
%
Delta-T
°C
Wind Press
QNH
hPa
Press
MSL
hPa
Rain since
9am
mm
Dir  Spd
km/h
Gust
km/h
Spd
kts
Gust
kts
01/03:30pm 16.6 14.7 9.1 61 3.9 NNW 9 11 5 6 1025.7 1025.7 0.0
01/03:00pm 17.0 15.6 9.4 61 3.9 NNW 7 11 4 6 1025.7 1025.7 0.0
01/02:30pm 16.5 14.1 8.7 60 4.0 NNW 11 15 6 8 1025.9 1025.9 0.0
01/02:00pm 17.1 15.3 9.3 60 4.0 NNW 9 13 5 7 1026.0 1026.0 0.0
01/01:30pm 17.0 14.8 9.2 60 4.0 N 11 19 6 10 1026.2 1026.2 0.0
01/01:00pm 16.8 14.1 8.8 59 4.1 N 13 19 7 10 1026.7 1026.7 0.0
01/12:30pm 16.4 13.3 8.9 61 3.9 N 15 20 8 11 1027.2 1027.2 0.0
01/12:00pm 16.5 14.1 9.9 65 3.4 N 13 17 7 9 1027.6 1027.6 0.0
01/11:30am 15.6 13.5 9.7 68 3.1 N 11 17 6 9 1027.9 1027.9 0.0
01/11:00am 15.9 14.0 8.9 63 3.6 NNE 9 13 5 7 1028.0 1028.0 0.0
01/10:30am 14.8 13.3 9.2 69 2.9 NNE 7 11 4 6 1028.0 1028.0 0.0
01/10:00am 12.3 10.2 8.4 77 1.9 NNE 9 11 5 6 1028.2 1028.2 0.0
01/09:30am 10.8 9.5 9.2 90 0.8 NE 6 9 3 5 1028.3 1028.3 0.0
01/09:00am 9.3 8.2 8.4 94 0.4 ENE 4 7 2 4 1028.3 1028.3 0.0
01/08:30am 8.2 6.5 7.6 96 0.3 ENE 6 7 3 4 1028.2 1028.2 0.0
01/08:00am 6.1 4.3 5.5 96 0.3 ENE 4 6 2 3 1028.0 1028.0 0.0
01/07:30am 4.9 2.5 4.3 96 0.3 E 6 6 3 3 1027.5 1027.5 0.0
01/07:00am 4.8 2.4 4.1 95 0.3 ENE 6 6 3 3 1027.4 1027.4 0.0
01/06:30am 4.7 3.0 4.0 95 0.3 ENE 2 4 1 2 1027.2 1027.2 0.0
01/06:00am 4.8 3.1 4.1 95 0.3 ENE 2 4 1 2 1027.0 1027.0 0.0
01/05:30am 5.7 4.6 5.0 95 0.3 CALM 0 0 0 0 1027.1 1027.1 0.0
01/05:00am 6.0 4.9 5.3 95 0.3 CALM 0 0 0 0 1026.9 1026.9 0.0
01/04:30am 6.5 5.2 5.8 95 0.3 E 2 4 1 2 1026.8 1026.8 0.0
01/04:00am 6.5 5.5 5.8 95 0.3 CALM 0 0 0 0 1026.9 1026.9 0.0
01/03:30am 6.3 5.3 5.4 94 0.4 CALM 0 2 0 1 1027.1 1027.1 0.0
01/03:00am 6.6 5.6 5.7 94 0.4 CALM 0 2 0 1 1027.1 1027.1 0.0
01/02:30am 7.2 6.4 6.3 94 0.4 CALM 0 0 0 0 1027.1 1027.1 0.0
01/02:00am 8.2 7.5 7.1 93 0.5 CALM 0 0 0 0 1027.0 1027.0 0.0
01/01:30am 8.4 7.8 7.3 93 0.5 CALM 0 0 0 0 1027.0 1027.0 0.0
01/01:00am 9.4 9.0 8.2 92 0.6 CALM 0 0 0 0 1027.1 1027.1 0.0
01/12:30am 10.0 9.4 8.9 93 0.5 ENE 2 6 1 3 1027.2 1027.2 0.0
01/12:00am 10.2 9.3 9.1 93 0.5 NE 4 6 2 3 1027.2 1027.2 0.0
 
Date/Time
WST
Temp
°C
App
Temp
°C
Dew
Point
°C
Rel
Hum
%
Delta-T
°C
Wind Press
QNH
hPa
Press
MSL
hPa
Rain since
9am
mm
Dir  Spd
km/h
Gust
km/h
Spd
kts
Gust
kts
30/11:30pm 10.3 9.8 9.2 93 0.5 SE 2 7 1 4 1027.3 1027.3 0.0
30/11:00pm 9.9 9.7 9.0 94 0.4 CALM 0 0 0 0 1027.4 1027.4 0.0
30/10:30pm 9.6 9.3 8.5 93 0.5 CALM 0 0 0 0 1027.5 1027.5 0.0
30/10:00pm 10.1 9.9 8.9 92 0.6 CALM 0 2 0 1 1027.6 1027.6 0.0
30/09:30pm 10.6 10.5 9.5 93 0.6 CALM 0 0 0 0 1027.5 1027.5 0.0
30/09:00pm 10.8 10.7 9.4 91 0.7 CALM 0 0 0 0 1027.4 1027.4 0.0
30/08:30pm 11.3 11.3 9.9 91 0.7 CALM 0 0 0 0 1027.1 1027.1 0.0
30/08:00pm 11.1 11.1 9.7 91 0.7 CALM 0 0 0 0 1027.1 1027.1 0.0
30/07:30pm 10.8 10.7 9.4 91 0.7 CALM 0 0 0 0 1026.9 1026.9 0.0
30/07:00pm 10.9 10.7 9.2 89 0.8 CALM 0 0 0 0 1026.6 1026.6 0.0
30/06:30pm 11.4 11.2 9.1 86 1.1 CALM 0 0 0 0 1026.4 1026.4 0.0
30/06:00pm 13.1 12.3 9.7 80 1.7 SSW 4 6 2 3 1026.0 1026.0 0.0
30/05:30pm 13.2 12.8 8.1 71 2.5 CALM 0 2 0 1 1025.7 1025.7 0.0
30/05:00pm 14.9 14.3 8.8 67 3.1 W 2 4 1 2 1025.4 1025.4 0.0
30/04:30pm 14.9 13.4 8.6 66 3.2 NW 6 9 3 5 1025.1 1025.1 0.0
30/04:00pm 16.3 14.5 9.3 63 3.6 NW 9 15 5 8 1024.8 1024.8 0.0
30/03:30pm 16.6 15.5 10.0 65 3.5 NW 6 9 3 5 1024.7 1024.7 0.0
30/03:00pm 16.3 14.9 9.5 64 3.5 NW 7 13 4 7 1024.6 1024.6 0.0
30/02:30pm 16.9 15.6 9.8 63 3.7 W 7 13 4 7 1024.5 1024.5 0.0
30/02:00pm 17.3 15.7 8.7 57 4.4 WNW 7 13 4 7 1024.5 1024.5 0.0
30/01:30pm 17.3 16.0 9.2 59 4.2 W 6 9 3 5 1024.9 1024.9 0.0
30/01:00pm 16.5 15.1 9.0 61 3.8 W 6 9 3 5 1025.0 1025.0 0.0
30/12:30pm 16.4 14.4 8.6 60 4.0 SW 9 13 5 7 1025.4 1025.4 0.0
30/12:00pm 15.9 13.5 10.2 69 3.0 SW 13 20 7 11 1026.1 1026.1 0.0
30/11:30am 17.4 16.1 11.2 67 3.4 N 9 13 5 7 1026.4 1026.4 0.0
30/11:00am 15.8 14.6 10.3 70 2.9 N 7 11 4 6 1026.8 1026.8 0.0
30/10:30am 15.0 14.3 10.0 72 2.6 NE 4 7 2 4 1027.1 1027.1 0.0
30/10:00am 13.2 11.9 9.3 77 2.0 NNE 6 7 3 4 1026.8 1026.8 0.0
30/09:30am 11.3 10.2 10.0 92 0.7 NE 6 9 3 5 1026.7 1026.7 0.0
30/09:00am 9.3 7.8 8.5 95 0.4 NE 6 6 3 3 1026.7 1026.7 0.0
30/08:30am 7.5 6.4 6.9 96 0.3 NE 2 6 1 3 1026.5 1026.5 0.0
30/08:00am 5.9 4.8 5.3 96 0.3 CALM 0 0 0 0 1026.2 1026.2 0.0
30/07:30am 4.4 2.7 3.8 96 0.2 ENE 2 4 1 2 1026.0 1026.0 0.0
30/07:00am 4.3 2.2 3.7 96 0.2 E 4 4 2 2 1025.7 1025.7 0.0
30/06:30am 4.4 3.0 3.8 96 0.2 CALM 0 0 0 0 1025.4 1025.4 0.0
30/06:00am 4.0 2.6 3.4 96 0.2 CALM 0 0 0 0 1025.2 1025.2 0.0
30/05:30am 4.3 2.9 3.7 96 0.2 CALM 0 0 0 0 1025.1 1025.1 0.0
30/05:00am 4.8 3.5 4.1 95 0.3 CALM 0 0 0 0 1025.0 1025.0 0.0
30/04:30am 5.0 3.8 4.4 96 0.3 CALM 0 0 0 0 1024.9 1024.9 0.0
30/04:00am 4.5 3.1 3.8 95 0.3 CALM 0 0 0 0 1024.7 1024.7 0.0
30/03:30am 6.4 5.4 5.8 96 0.3 CALM 0 0 0 0 1025.0 1025.0 0.0
30/03:00am 6.1 5.1 5.4 95 0.3 CALM 0 0 0 0 1024.9 1024.9 0.0
30/02:30am 7.1 6.3 6.4 95 0.3 CALM 0 0 0 0 1025.1 1025.1 0.0
30/02:00am 6.8 5.9 6.1 95 0.3 CALM 0 0 0 0 1025.0 1025.0 0.0
30/01:30am 6.3 5.3 5.6 95 0.3 CALM 0 0 0 0 1024.8 1024.8 0.0
30/01:00am 6.1 4.7 5.4 95 0.3 E 2 4 1 2 1024.6 1024.6 0.0
30/12:30am 5.6 4.1 4.9 95 0.3 E 2 2 1 1 1024.6 1024.6 0.0
30/12:00am 5.5 4.3 4.8 95 0.3 CALM 0 0 0 0 1024.5 1024.5 0.0
 
Date/Time
WST
Temp
°C
App
Temp
°C
Dew
Point
°C
Rel
Hum
%
Delta-T
°C
Wind Press
QNH
hPa
Press
MSL
hPa
Rain since
9am
mm
Dir  Spd
km/h
Gust
km/h
Spd
kts
Gust
kts
29/11:30pm 6.2 5.2 5.5 95 0.3 CALM 0 0 0 0 1024.3 1024.3 0.0
29/11:00pm 6.4 5.4 5.5 94 0.4 CALM 0 0 0 0 1024.3 1024.3 0.0
29/10:30pm 6.4 5.4 5.5 94 0.4 CALM 0 0 0 0 1024.3 1024.3 0.0
29/10:00pm 6.5 5.5 5.5 93 0.4 CALM 0 0 0 0 1024.1 1024.1 0.0
29/09:30pm 6.9 5.9 5.8 93 0.5 CALM 0 0 0 0 1023.8 1023.8 0.0
29/09:00pm 7.3 6.4 6.1 92 0.5 CALM 0 0 0 0 1023.6 1023.6 0.0
29/08:30pm 8.3 7.6 6.9 91 0.6 CALM 0 0 0 0 1023.4 1023.4 0.0
29/08:00pm 8.8 8.1 7.1 89 0.8 CALM 0 0 0 0 1023.0 1023.0 0.0
29/07:30pm 9.6 9.0 7.4 86 1.0 CALM 0 0 0 0 1022.6 1022.6 0.0
29/07:00pm 11.2 10.8 8.1 81 1.5 CALM 0 0 0 0 1022.4 1022.4 0.0
29/06:30pm 12.7 11.2 8.6 76 2.0 S 6 7 3 4 1021.8 1021.8 0.0
29/06:00pm 13.6 12.0 8.9 73 2.4 SSW 7 11 4 6 1021.5 1021.5 0.0
29/05:30pm 14.5 13.0 9.1 70 2.8 SW 7 11 4 6 1020.9 1020.9 0.0
29/05:00pm 15.5 14.1 9.4 67 3.1 SW 7 11 4 6 1020.6 1020.6 0.0
29/04:30pm 16.2 13.1 8.7 61 3.8 SW 15 22 8 12 1020.3 1020.3 0.0
29/04:00pm 16.6 14.2 8.6 59 4.1 SW 11 19 6 10 1019.8 1019.7 0.0
29/03:30pm 16.9 13.7 8.6 58 4.3 SW 15 20 8 11 1019.5 1019.4 0.0
29/03:00pm 16.9 13.1 9.1 60 4.0 SW 19 28 10 15 1019.1 1019.0 0.0
29/02:30pm 17.2 14.8 10.1 63 3.8 SW 13 22 7 12 1018.8 1018.7 0.0
29/02:00pm 17.1 14.6 10.9 67 3.3 WSW 15 22 8 12 1018.7 1018.6 0.0
29/01:30pm 17.1 15.3 10.9 67 3.3 WSW 11 22 6 12 1018.5 1018.4 0.0
29/01:00pm 16.4 14.4 10.3 67 3.2 W 11 20 6 11 1018.6 1018.5 0.0
29/12:30pm 17.0 15.4 11.5 70 3.0 W 11 17 6 9 1018.6 1018.5 0.0
29/12:00pm 16.6 14.4 10.7 68 3.1 WSW 13 17 7 9 1018.7 1018.6 0.0
29/11:30am 16.7 15.3 11.0 69 3.1 SW 9 17 5 9 1018.6 1018.5 0.0
29/11:00am 16.6 14.4 10.9 69 3.0 SW 13 19 7 10 1018.4 1018.3 0.0
29/10:30am 15.9 14.0 10.4 70 2.9 S 11 15 6 8 1018.2 1018.1 0.0
29/10:00am 15.7 14.7 10.9 73 2.5 SSW 7 11 4 6 1018.1 1018.0 0.0
29/09:30am 14.9 13.4 10.5 75 2.3 SSW 9 19 5 10 1017.9 1017.8 0.0
29/09:00am 14.3 12.4 10.5 78 2.0 SSW 11 17 6 9 1017.6 1017.5 9.0
29/08:30am 14.1 12.1 10.3 78 2.0 SSW 11 15 6 8 1017.2 1017.1 9.0
29/08:00am 14.1 12.2 10.5 79 1.9 SW 11 17 6 9 1016.6 1016.5 9.0
29/07:30am 14.0 12.5 10.6 80 1.8 SSW 9 15 5 8 1016.1 1016.0 9.0
29/07:00am 15.2 13.0 10.8 75 2.3 WSW 13 20 7 11 1015.5 1015.4 9.0
29/06:30am 15.1 13.3 10.7 75 2.3 WSW 11 19 6 10 1015.0 1014.9 9.0
29/06:00am 14.7 13.1 10.3 75 2.3 SW 9 17 5 9 1014.4 1014.3 9.0
29/05:30am 15.6 13.0 10.6 72 2.6 WSW 15 26 8 14 1014.0 1013.9 9.0
29/05:00am 15.2 13.8 10.8 75 2.3 WSW 9 17 5 9 1013.6 1013.6 9.0
29/04:30am 15.0 12.8 10.8 76 2.2 WSW 13 22 7 12 1013.5 1013.5 9.0
29/04:00am 15.4 12.9 11.0 75 2.3 W 15 24 8 13 1013.3 1013.3 9.0
29/03:30am 15.6 12.8 11.4 76 2.3 W 17 30 9 16 1013.2 1013.2 9.0
29/03:00am 15.3 13.5 10.9 75 2.3 W 11 19 6 10 1013.1 1013.1 9.0
29/02:30am 15.2 13.3 10.4 73 2.5 W 11 19 6 10 1013.2 1013.2 9.0
29/02:00am 15.1 13.1 10.3 73 2.5 W 11 20 6 11 1012.9 1012.9 9.0
29/01:30am 15.0 13.0 10.2 73 2.5 W 11 15 6 8 1012.8 1012.8 9.0
29/01:00am 14.9 13.5 10.9 77 2.1 W 9 15 5 8 1012.7 1012.7 9.0
29/12:30am 14.8 12.8 10.2 74 2.4 W 11 19 6 10 1012.9 1012.9 9.0
29/12:00am 14.6 13.1 10.6 77 2.1 W 9 13 5 7 1012.8 1012.8 9.0
 
Date/Time
WST
Temp
°C
App
Temp
°C
Dew
Point
°C
Rel
Hum
%
Delta-T
°C
Wind Press
QNH
hPa
Press
MSL
hPa
Rain since
9am
mm
Dir  Spd
km/h
Gust
km/h
Spd
kts
Gust
kts
28/11:30pm 14.9 13.0 10.5 75 2.3 W 11 19 6 10 1012.9 1012.9 9.0
28/11:00pm 15.0 13.2 11.0 77 2.1 W 11 20 6 11 1012.7 1012.7 9.0
28/10:30pm 14.8 13.5 11.2 79 1.9 W 9 15 5 8 1012.4 1012.4 9.0
28/10:00pm 14.8 13.6 11.6 81 1.7 W 9 13 5 7 1012.5 1012.5 9.0
28/09:30pm 14.8 14.1 11.9 83 1.6 W 7 13 4 7 1012.6 1012.6 9.0
28/09:00pm 14.5 14.0 12.5 88 1.1 W 7 13 4 7 1012.5 1012.5 9.0
28/08:30pm 14.6 14.1 12.5 87 1.1 W 7 11 4 6 1012.4 1012.4 9.0
28/08:00pm 14.7 14.3 12.9 89 1.0 SW 7 9 4 5 1012.2 1012.2 9.0
28/07:30pm 14.9 14.7 13.1 89 1.0 WSW 6 9 3 5 1012.0 1012.0 9.0
28/07:00pm 15.6 14.6 13.3 86 1.3 WSW 11 20 6 11 1011.8 1011.8 9.0
28/06:30pm 15.9 15.1 13.0 83 1.6 WSW 9 19 5 10 1011.3 1011.3 8.0
28/06:00pm 15.9 15.1 12.8 82 1.7 W 9 17 5 9 1010.9 1010.9 8.0
28/05:30pm 16.4 15.7 13.3 82 1.7 W 9 15 5 8 1010.6 1010.6 8.0
28/05:00pm 17.0 17.0 14.3 84 1.5 W 7 9 4 5 1010.4 1010.4 8.0
28/04:30pm 17.1 17.3 14.2 83 1.7 WSW 6 9 3 5 1010.2 1010.2 8.0
28/04:00pm 17.2 16.3 13.7 80 2.0 WNW 11 17 6 9 1009.9 1009.9 8.0

Other Formats:

Comma delimited format used in spreadsheet applications
http://www.bom.gov.au/fwo/IDW60801/IDW60801.94604.axf

JavaScript Object Notation format (JSON) in row-major order
http://www.bom.gov.au/fwo/IDW60801/IDW60801.94604.json